Time;durP1;ratioP1;P1;durP2;ratioP2;P2;SDS_P1;SDS_P2;PMS_P1;PMS_P2;Temp;Humidity;BMP_temperature;BMP_pressure;BME280_temperature;BME280_humidity;BME280_pressure;Samples;Min_cycle;Max_cycle;Signal;HPM_P1;HPM_P2
2022/08/10 00:00:35;;;;;;;1.50;0.77;;;19.20;99.90;;;;;;5010571;28;20224;-70
2022/08/10 00:03:06;;;;;;;3.60;0.67;;;19.40;99.90;;;;;;5015940;28;20650;-71
2022/08/10 00:05:34;;;;;;;1.33;0.50;;;19.60;99.90;;;;;;5012425;28;20244;-69
2022/08/10 00:08:01;;;;;;;2.40;0.70;;;20.00;99.90;;;;;;5012011;28;20275;-69
2022/08/10 00:10:28;;;;;;;1.63;0.60;;;19.90;99.90;;;;;;5011950;28;20256;-71
2022/08/10 00:12:56;;;;;;;3.00;1.00;;;19.90;99.90;;;;;;5011881;28;20652;-70
2022/08/10 00:15:24;;;;;;;7.93;0.80;;;20.00;99.90;;;;;;5000923;28;20220;-71
2022/08/10 00:17:51;;;;;;;1.40;0.60;;;20.10;99.90;;;;;;4991741;28;20197;-70
2022/08/10 00:20:19;;;;;;;7.23;0.80;;;19.90;99.90;;;;;;4984406;28;20187;-71
2022/08/10 00:22:47;;;;;;;2.57;0.57;;;19.90;99.90;;;;;;4984336;28;20190;-70
2022/08/10 00:25:14;;;;;;;1.23;0.70;;;20.10;99.90;;;;;;4973395;28;20187;-71
2022/08/10 00:27:41;;;;;;;3.20;1.47;;;20.30;99.90;;;;;;4987020;28;20268;-70
2022/08/10 00:30:09;;;;;;;3.03;0.90;;;20.60;99.90;;;;;;4974156;28;20183;-71
2022/08/10 00:32:37;;;;;;;4.07;1.70;;;20.90;99.90;;;;;;4975283;28;20194;-70
2022/08/10 00:35:04;;;;;;;2.67;0.93;;;21.00;99.90;;;;;;4989744;28;20182;-70
2022/08/10 00:37:32;;;;;;;1.90;0.70;;;21.30;99.90;;;;;;4991821;28;20178;-70
2022/08/10 00:39:59;;;;;;;1.73;0.73;;;20.90;99.90;;;;;;4983535;28;20178;-71
2022/08/10 00:42:27;;;;;;;3.60;0.63;;;21.10;99.90;;;;;;5011520;28;20178;-71
2022/08/10 00:44:54;;;;;;;2.27;0.80;;;21.00;99.90;;;;;;4995026;28;20665;-69
2022/08/10 00:47:22;;;;;;;4.27;0.87;;;21.10;99.90;;;;;;4991474;28;20843;-72
2022/08/10 00:49:49;;;;;;;8.47;0.90;;;21.50;99.90;;;;;;4991919;28;20171;-72
2022/08/10 00:52:18;;;;;;;2.70;0.67;;;22.00;99.90;;;;;;4993170;28;20182;-71
2022/08/10 00:54:47;;;;;;;6.23;1.00;;;21.90;99.90;;;;;;4995881;28;20668;-70
2022/08/10 00:57:15;;;;;;;2.30;0.70;;;21.70;99.90;;;;;;5004910;28;20678;-70
2022/08/10 00:59:43;;;;;;;2.43;0.70;;;21.80;99.90;;;;;;4993577;28;20185;-70
2022/08/10 01:02:10;;;;;;;2.83;0.90;;;22.00;99.90;;;;;;4972250;28;20639;-71
2022/08/10 01:04:38;;;;;;;3.43;0.90;;;22.20;99.90;;;;;;4976996;28;21048;-71
2022/08/10 01:07:42;;;;;;;2.73;0.80;;;22.40;99.90;;;;;;4975071;28;20591;-72
2022/08/10 01:10:23;;;;;;;3.57;1.10;;;22.20;99.90;;;;;;4977121;28;20570;-71
2022/08/10 01:13:22;;;;;;;2.20;0.80;;;21.30;99.90;;;;;;4993725;28;20186;-71
2022/08/10 01:16:11;;;;;;;3.30;0.80;;;21.50;99.90;;;;;;4993970;28;20197;-69
2022/08/10 01:18:54;;;;;;;2.87;0.80;;;21.60;99.90;;;;;;4987505;28;20183;-69
2022/08/10 01:21:49;;;;;;;3.20;0.93;;;22.00;99.90;;;;;;4982127;28;20657;-70
2022/08/10 01:25:07;;;;;;;4.03;1.07;;;22.20;99.90;;;;;;4995354;28;20256;-70
2022/08/10 01:27:55;;;;;;;4.20;0.73;;;22.20;99.90;;;;;;4933313;29;20218;-71
2022/08/10 01:30:26;;;;;;;3.80;0.93;;;21.80;99.90;;;;;;4981933;28;20189;-69
2022/08/10 01:33:01;;;;;;;2.17;0.80;;;21.30;99.90;;;;;;4995219;28;20182;-70
2022/08/10 01:35:36;;;;;;;3.63;0.90;;;21.10;99.90;;;;;;4994249;28;20204;-70
2022/08/10 01:38:06;;;;;;;2.00;0.70;;;21.00;99.90;;;;;;4994883;28;20719;-72
2022/08/10 01:40:38;;;;;;;5.43;1.27;;;21.30;99.90;;;;;;4995149;28;20398;-70
2022/08/10 01:43:13;;;;;;;6.43;0.80;;;21.90;99.90;;;;;;4994865;28;20701;-70
2022/08/10 01:45:45;;;;;;;4.33;0.80;;;21.80;99.90;;;;;;4995181;28;20178;-68
2022/08/10 01:48:36;;;;;;;3.53;1.03;;;21.50;99.90;;;;;;4974098;28;20258;-69
2022/08/10 01:51:10;;;;;;;5.93;1.13;;;21.10;99.90;;;;;;4972528;28;20226;-70
2022/08/10 01:53:53;;;;;;;3.87;1.13;;;20.20;99.90;;;;;;4975502;28;20183;-71
2022/08/10 01:56:24;;;;;;;3.00;1.10;;;19.40;99.90;;;;;;4975280;28;20209;-70
2022/08/10 01:59:29;;;;;;;5.50;1.03;;;18.80;99.90;;;;;;4975288;28;20181;-69
2022/08/10 02:02:08;;;;;;;3.53;1.00;;;18.80;99.90;;;;;;4973796;28;20195;-71
2022/08/10 02:04:39;;;;;;;6.13;1.20;;;19.50;99.90;;;;;;4973453;28;20214;-70
2022/08/10 02:07:11;;;;;;;3.37;0.93;;;20.60;99.90;;;;;;4975122;28;20237;-69
2022/08/10 02:09:41;;;;;;;2.03;0.70;;;20.10;99.90;;;;;;4975361;28;20184;-69
2022/08/10 02:12:16;;;;;;;6.60;1.07;;;19.60;99.90;;;;;;4974954;28;20538;-70
2022/08/10 02:15:08;;;;;;;4.57;1.00;;;19.30;99.90;;;;;;4977456;28;20937;-70
2022/08/10 02:17:39;;;;;;;4.87;0.93;;;18.60;99.90;;;;;;4955680;28;20191;-71
2022/08/10 02:20:19;;;;;;;4.30;0.90;;;18.20;99.90;;;;;;4960842;28;20610;-72
2022/08/10 02:22:55;;;;;;;1.97;0.90;;;18.50;99.90;;;;;;4972816;28;20671;-69
2022/08/10 02:25:24;;;;;;;4.10;0.90;;;19.80;99.90;;;;;;4970329;28;20196;-71
2022/08/10 02:27:53;;;;;;;5.37;1.33;;;20.40;99.90;;;;;;4966743;28;20211;-71
2022/08/10 02:30:21;;;;;;;2.03;0.77;;;20.60;99.90;;;;;;4955352;29;20179;-71
2022/08/10 02:32:50;;;;;;;3.47;1.00;;;20.30;99.90;;;;;;4986429;28;20557;-70
2022/08/10 02:35:20;;;;;;;5.97;0.80;;;19.50;99.90;;;;;;4956958;28;20580;-71
2022/08/10 02:37:50;;;;;;;2.97;1.10;;;19.40;99.90;;;;;;4974671;28;20215;-71
2022/08/10 02:40:18;;;;;;;3.53;0.77;;;19.30;99.90;;;;;;4974675;28;20183;-72
2022/08/10 02:43:02;;;;;;;1.73;0.60;;;18.70;99.90;;;;;;4974228;28;20183;-71
2022/08/10 02:45:41;;;;;;;2.53;0.70;;;18.10;99.90;;;;;;4963677;28;20207;-70
2022/08/10 02:48:21;;;;;;;2.63;0.80;;;17.80;99.90;;;;;;4966006;28;20631;-72
2022/08/10 02:51:01;;;;;;;0.60;0.60;;;17.40;99.90;;;;;;4974354;28;20240;-72
2022/08/10 02:53:50;;;;;;;1.73;0.90;;;17.20;99.90;;;;;;4975936;28;20673;-71
2022/08/10 02:56:23;;;;;;;2.97;0.90;;;17.20;99.90;;;;;;4961123;28;20547;-71
2022/08/10 02:59:14;;;;;;;4.70;0.90;;;17.10;99.90;;;;;;4974081;28;20188;-71
2022/08/10 03:01:48;;;;;;;2.47;0.80;;;17.00;99.90;;;;;;4974278;28;20176;-70
2022/08/10 03:04:33;;;;;;;2.70;0.87;;;17.00;99.90;;;;;;4974259;28;20646;-72
2022/08/10 03:07:05;;;;;;;1.77;0.80;;;16.90;99.90;;;;;;4991788;28;20202;-71
2022/08/10 03:09:36;;;;;;;2.57;1.00;;;17.00;99.90;;;;;;4993639;28;20190;-71
2022/08/10 03:12:05;;;;;;;6.67;1.50;;;17.10;99.90;;;;;;4975927;28;20182;-70
2022/08/10 03:14:33;;;;;;;1.77;0.80;;;17.20;99.90;;;;;;4992078;28;20175;-71
2022/08/10 03:17:03;;;;;;;1.50;0.60;;;17.30;99.90;;;;;;4971898;28;20278;-71
2022/08/10 03:19:33;;;;;;;1.53;0.73;;;17.50;99.90;;;;;;4973879;28;20185;-71
2022/08/10 03:22:02;;;;;;;0.57;0.50;;;18.50;99.90;;;;;;4986184;28;20244;-70
2022/08/10 03:24:33;;;;;;;0.73;0.40;;;19.30;99.90;;;;;;4976884;28;20882;-69
2022/08/10 03:27:03;;;;;;;2.27;0.73;;;20.10;99.90;;;;;;4993676;28;20209;-69
2022/08/10 03:29:32;;;;;;;2.10;0.87;;;20.70;99.90;;;;;;4992942;28;20568;-71
2022/08/10 03:32:02;;;;;;;2.37;0.60;;;20.80;99.90;;;;;;4992992;28;20611;-70
2022/08/10 03:34:31;;;;;;;3.90;0.60;;;20.90;99.90;;;;;;4978729;28;20186;-70
2022/08/10 03:36:58;;;;;;;3.57;1.00;;;20.80;99.90;;;;;;4992586;28;20194;-70
2022/08/10 03:39:26;;;;;;;4.73;0.83;;;21.10;99.90;;;;;;4975749;28;20262;-71
2022/08/10 03:41:58;;;;;;;1.50;0.50;;;20.70;99.90;;;;;;4973414;28;20183;-71
2022/08/10 03:44:30;;;;;;;2.57;0.93;;;20.20;99.90;;;;;;4973443;28;20187;-72
2022/08/10 03:47:04;;;;;;;4.73;0.90;;;19.70;99.90;;;;;;4973450;28;20244;-71
2022/08/10 03:49:32;;;;;;;2.17;0.63;;;19.80;99.90;;;;;;4991336;28;20182;-71
2022/08/10 03:52:01;;;;;;;1.80;0.73;;;20.00;99.90;;;;;;4992645;28;20174;-71
2022/08/10 03:54:30;;;;;;;4.10;1.07;;;20.50;99.90;;;;;;4975754;28;20179;-71
2022/08/10 03:56:57;;;;;;;2.77;0.70;;;20.50;99.90;;;;;;4992726;28;20171;-71
2022/08/10 03:59:25;;;;;;;4.73;0.90;;;20.60;99.90;;;;;;4974335;28;20182;-71
2022/08/10 04:01:54;;;;;;;2.07;0.57;;;20.80;99.90;;;;;;4992031;28;20193;-71
2022/08/10 04:04:21;;;;;;;0.53;0.33;;;20.90;99.90;;;;;;4992185;28;20548;-72
2022/08/10 04:06:50;;;;;;;1.07;0.57;;;21.00;99.90;;;;;;4972855;28;20221;-70
2022/08/10 04:09:19;;;;;;;4.67;0.93;;;21.40;99.90;;;;;;4989285;28;20197;-69
2022/08/10 04:11:46;;;;;;;1.87;0.60;;;21.40;99.90;;;;;;4994474;28;20183;-70
2022/08/10 04:14:13;;;;;;;3.03;0.70;;;20.70;99.90;;;;;;4992074;28;20178;-70
2022/08/10 04:16:44;;;;;;;2.77;0.73;;;21.00;99.90;;;;;;4982160;28;20639;-72
2022/08/10 04:19:14;;;;;;;2.53;0.77;;;20.90;99.90;;;;;;4981325;28;20636;-71
2022/08/10 04:21:45;;;;;;;2.90;0.50;;;20.00;99.90;;;;;;4972825;28;20235;-72
2022/08/10 04:24:18;;;;;;;0.60;0.50;;;19.10;99.90;;;;;;4972866;28;20179;-70
2022/08/10 04:26:46;;;;;;;2.63;0.70;;;18.60;99.90;;;;;;4972469;28;20195;-71
2022/08/10 04:29:15;;;;;;;1.50;0.67;;;18.20;99.90;;;;;;4971056;28;20214;-71
2022/08/10 04:31:44;;;;;;;3.80;0.70;;;17.90;99.90;;;;;;4972588;28;20184;-71
2022/08/10 04:34:13;;;;;;;7.50;0.80;;;17.80;99.90;;;;;;4977087;28;20178;-70
2022/08/10 04:36:43;;;;;;;0.80;0.70;;;17.70;99.90;;;;;;4990987;28;20191;-72
2022/08/10 04:39:12;;;;;;;1.17;0.60;;;17.60;99.90;;;;;;4992032;28;20579;-70
2022/08/10 04:41:40;;;;;;;0.93;0.60;;;17.60;99.90;;;;;;4972568;28;20179;-70
2022/08/10 04:44:08;;;;;;;3.30;1.20;;;17.40;99.90;;;;;;4972816;28;20180;-72
2022/08/10 04:46:36;;;;;;;4.30;1.00;;;17.90;99.90;;;;;;4972414;28;20541;-72
2022/08/10 04:49:03;;;;;;;1.63;0.60;;;18.30;99.90;;;;;;4952226;28;20235;-70
2022/08/10 04:51:31;;;;;;;0.80;0.50;;;18.40;99.90;;;;;;4954296;28;20591;-70
2022/08/10 04:53:58;;;;;;;2.37;0.80;;;18.40;99.90;;;;;;4968285;28;20198;-71
2022/08/10 04:56:25;;;;;;;0.90;0.50;;;18.40;99.90;;;;;;4954501;28;20199;-71
2022/08/10 04:58:53;;;;;;;2.27;1.10;;;18.70;99.90;;;;;;4953168;28;20192;-70
2022/08/10 05:01:20;;;;;;;4.70;0.57;;;19.10;99.90;;;;;;4956741;28;20206;-71
2022/08/10 05:03:48;;;;;;;2.33;1.03;;;19.40;99.90;;;;;;4953195;28;20270;-71
2022/08/10 05:06:15;;;;;;;2.67;0.53;;;19.60;99.90;;;;;;4968649;28;20659;-70
2022/08/10 05:08:42;;;;;;;1.47;0.80;;;19.40;99.90;;;;;;4969666;28;20551;-72
2022/08/10 05:11:10;;;;;;;2.10;0.50;;;19.50;99.90;;;;;;4971991;28;20692;-72
2022/08/10 05:13:37;;;;;;;2.33;0.50;;;19.60;99.90;;;;;;4972052;28;20199;-72
2022/08/10 05:16:04;;;;;;;2.10;0.70;;;19.70;99.90;;;;;;4971575;28;20203;-70
2022/08/10 05:18:32;;;;;;;3.03;0.57;;;19.30;99.90;;;;;;4971016;28;20187;-72
2022/08/10 05:20:59;;;;;;;5.13;0.70;;;18.80;99.90;;;;;;4970747;28;20691;-74
2022/08/10 05:23:26;;;;;;;2.10;0.83;;;18.50;99.90;;;;;;4972282;28;20187;-71
2022/08/10 05:25:54;;;;;;;2.63;0.60;;;18.60;99.90;;;;;;4972134;28;20183;-70
2022/08/10 05:28:22;;;;;;;1.67;0.60;;;18.60;99.90;;;;;;4972160;28;20625;-70
2022/08/10 05:30:49;;;;;;;2.47;0.63;;;18.50;99.90;;;;;;4970673;28;20202;-71
2022/08/10 05:33:17;;;;;;;0.60;0.60;;;18.50;99.90;;;;;;4972162;28;20651;-72
2022/08/10 05:35:44;;;;;;;1.03;0.50;;;18.40;99.90;;;;;;4972603;28;20689;-70
2022/08/10 05:38:14;;;;;;;2.50;0.77;;;18.40;99.90;;;;;;4980586;28;20650;-71
2022/08/10 05:40:43;;;;;;;1.80;0.70;;;18.60;99.90;;;;;;4994842;28;20233;-72
2022/08/10 05:43:13;;;;;;;3.93;0.60;;;18.70;99.90;;;;;;4981936;28;20191;-71
2022/08/10 05:45:40;;;;;;;7.13;0.80;;;18.60;99.90;;;;;;4976983;28;20186;-69
2022/08/10 05:48:07;;;;;;;1.47;0.60;;;18.60;99.90;;;;;;4986116;28;20234;-71
2022/08/10 05:50:35;;;;;;;2.40;0.77;;;18.60;99.90;;;;;;4994749;28;20182;-70
2022/08/10 05:53:02;;;;;;;3.77;0.87;;;18.40;99.90;;;;;;4994746;28;20175;-70
2022/08/10 05:55:33;;;;;;;3.83;0.87;;;18.40;99.90;;;;;;4996029;28;20192;-71
2022/08/10 05:58:01;;;;;;;1.73;0.63;;;18.00;99.90;;;;;;4976864;28;20187;-71
2022/08/10 06:00:30;;;;;;;2.70;0.80;;;17.60;99.90;;;;;;4980493;28;20194;-71
2022/08/10 06:03:04;;;;;;;2.67;0.70;;;17.30;99.90;;;;;;4975308;28;20665;-71
2022/08/10 06:05:34;;;;;;;3.07;0.83;;;17.00;99.90;;;;;;4982253;28;20269;-71
2022/08/10 06:08:12;;;;;;;5.80;0.90;;;16.80;99.90;;;;;;4994305;28;20272;-72
2022/08/10 06:10:41;;;;;;;2.10;0.90;;;16.60;99.90;;;;;;4992864;28;20179;-73
2022/08/10 06:15:59;;;;;;;5.20;0.80;;;16.30;99.90;;;;;;4975132;28;20209;-69
2022/08/10 06:18:27;;;;;;;2.53;0.90;;;16.20;99.90;;;;;;4974849;28;20266;-70
2022/08/10 06:20:56;;;;;;;3.80;1.03;;;16.10;99.90;;;;;;4977935;28;20597;-71
2022/08/10 06:23:27;;;;;;;2.57;0.77;;;16.00;99.90;;;;;;4982520;28;20222;-72
2022/08/10 06:25:55;;;;;;;4.53;1.40;;;15.80;99.90;;;;;;4975024;28;20258;-70
2022/08/10 06:28:24;;;;;;;6.43;1.00;;;15.80;99.90;;;;;;4974665;28;20214;-71
2022/08/10 06:30:54;;;;;;;3.47;0.70;;;15.80;99.90;;;;;;4988259;28;20179;-71
2022/08/10 06:33:25;;;;;;;1.83;0.70;;;15.80;99.90;;;;;;4973387;28;20191;-70
2022/08/10 06:35:56;;;;;;;3.10;1.03;;;15.80;99.90;;;;;;4973312;28;20227;-71
2022/08/10 06:38:25;;;;;;;4.60;1.00;;;15.70;99.90;;;;;;4977641;28;20595;-71
2022/08/10 06:41:00;;;;;;;3.47;0.90;;;15.70;99.90;;;;;;4993443;28;20195;-72
2022/08/10 06:43:30;;;;;;;1.90;0.80;;;15.60;99.90;;;;;;4958469;28;20237;-72
2022/08/10 06:46:11;;;;;;;1.13;0.70;;;15.50;99.90;;;;;;4975170;28;20563;-70
2022/08/10 06:48:55;;;;;;;2.63;1.10;;;15.30;99.90;;;;;;4974154;28;20553;-72
2022/08/10 06:51:37;;;;;;;2.43;0.90;;;15.20;99.90;;;;;;4976876;28;20185;-72
2022/08/10 06:54:10;;;;;;;3.40;0.73;;;15.10;99.90;;;;;;4989397;28;20194;-73
2022/08/10 06:56:44;;;;;;;3.33;0.70;;;15.00;99.90;;;;;;4974522;28;20191;-70
2022/08/10 06:59:32;;;;;;;6.13;0.77;;;14.90;99.90;;;;;;4974366;28;20179;-71
2022/08/10 07:02:08;;;;;;;2.10;0.63;;;14.80;99.90;;;;;;4981859;28;20595;-71
2022/08/10 07:04:44;;;;;;;2.33;0.80;;;14.60;99.90;;;;;;4971053;28;20233;-70
2022/08/10 07:07:18;;;;;;;2.17;0.93;;;14.50;99.90;;;;;;4973888;28;20607;-72
2022/08/10 07:09:48;;;;;;;8.60;2.80;;;14.40;99.90;;;;;;4989464;28;20193;-72
2022/08/10 07:12:19;;;;;;;2.77;1.20;;;14.40;99.90;;;;;;4983240;28;20223;-70
2022/08/10 07:14:49;;;;;;;2.37;1.10;;;14.30;99.90;;;;;;4973842;28;20179;-72
2022/08/10 07:17:27;;;;;;;5.20;2.30;;;14.20;99.90;;;;;;4983568;28;20258;-72
2022/08/10 07:19:59;;;;;;;4.97;1.20;;;14.10;99.90;;;;;;4993217;28;20708;-73
2022/08/10 07:22:29;;;;;;;3.33;1.17;;;14.10;99.90;;;;;;4981646;28;20286;-71
2022/08/10 07:24:58;;;;;;;2.50;1.13;;;14.10;99.90;;;;;;4982067;28;20496;-73
2022/08/10 07:27:26;;;;;;;2.67;1.20;;;14.10;99.90;;;;;;4992687;28;20213;-71
2022/08/10 07:29:55;;;;;;;7.50;1.40;;;14.10;99.90;;;;;;4993493;28;20182;-71
2022/08/10 07:32:24;;;;;;;4.37;1.30;;;14.00;99.90;;;;;;4982050;28;20642;-70
2022/08/10 07:34:56;;;;;;;4.70;1.40;;;14.00;99.90;;;;;;4973470;28;20177;-72
2022/08/10 07:37:26;;;;;;;2.13;1.20;;;13.90;99.90;;;;;;4973410;28;20190;-71
2022/08/10 07:39:57;;;;;;;6.17;1.53;;;13.80;99.90;;;;;;4973375;28;20177;-71
2022/08/10 07:42:27;;;;;;;4.67;1.50;;;13.80;99.90;;;;;;4974449;28;20238;-70
2022/08/10 07:44:54;;;;;;;7.60;1.50;;;13.70;99.90;;;;;;4977611;28;20638;-72
2022/08/10 07:47:32;;;;;;;4.40;2.20;;;13.60;99.90;;;;;;4990123;28;20238;-71
2022/08/10 07:50:06;;;;;;;5.43;2.03;;;13.50;99.90;;;;;;4974337;28;20211;-71
2022/08/10 07:52:36;;;;;;;2.50;1.60;;;13.40;99.90;;;;;;4990104;28;20189;-71
2022/08/10 07:55:07;;;;;;;9.03;3.73;;;13.30;99.90;;;;;;4989718;28;20188;-72
2022/08/10 07:57:37;;;;;;;6.20;2.97;;;13.20;99.90;;;;;;5012235;28;20188;-72
2022/08/10 08:00:10;;;;;;;46.03;26.83;;;13.20;99.90;;;;;;4996097;28;20189;-71
2022/08/10 08:03:00;;;;;;;14.93;9.57;;;13.20;99.90;;;;;;4995301;28;20199;-70
2022/08/10 08:05:32;;;;;;;8.80;5.03;;;13.20;99.90;;;;;;4993952;28;20177;-70
2022/08/10 08:08:01;;;;;;;5.90;4.97;;;13.10;99.90;;;;;;4992570;28;20217;-72
2022/08/10 08:10:30;;;;;;;4.77;3.63;;;13.00;99.90;;;;;;4992207;28;20526;-70
2022/08/10 08:13:00;;;;;;;28.47;25.70;;;13.00;99.90;;;;;;4992448;28;20179;-71
2022/08/10 08:15:29;;;;;;;10.20;8.87;;;12.90;99.90;;;;;;4992279;28;20175;-72
2022/08/10 08:17:59;;;;;;;7.33;5.50;;;12.90;99.90;;;;;;4991096;28;20279;-71
2022/08/10 08:20:27;;;;;;;7.33;4.10;;;12.80;99.90;;;;;;4991588;28;20192;-71
2022/08/10 08:22:57;;;;;;;6.83;3.80;;;12.70;99.90;;;;;;4991517;28;20190;-72
2022/08/10 08:25:25;;;;;;;11.40;5.93;;;12.70;99.90;;;;;;4978781;28;20277;-71
2022/08/10 08:27:55;;;;;;;5.43;3.43;;;12.60;99.90;;;;;;4989471;28;20248;-73
2022/08/10 08:30:23;;;;;;;6.60;4.93;;;12.60;99.90;;;;;;4972574;28;20661;-70
2022/08/10 08:33:01;;;;;;;7.77;6.43;;;12.50;99.90;;;;;;4972531;28;20186;-72
2022/08/10 08:35:31;;;;;;;9.53;4.53;;;12.50;99.90;;;;;;4984391;28;20204;-71
2022/08/10 08:38:00;;;;;;;15.47;10.50;;;12.50;99.90;;;;;;4991432;28;20188;-71
2022/08/10 08:40:35;;;;;;;105.97;62.10;;;12.50;99.90;;;;;;4992110;28;20189;-71
2022/08/10 08:43:15;;;;;;;23.33;15.27;;;12.50;99.90;;;;;;4990131;28;20711;-70
2022/08/10 08:46:18;;;;;;;5.03;3.10;;;12.50;99.90;;;;;;4960980;28;20221;-71
2022/08/10 08:49:24;;;;;;;2.97;2.20;;;12.50;99.90;;;;;;4955366;28;20627;-72
2022/08/10 08:52:12;;;;;;;9.27;4.77;;;12.50;99.90;;;;;;4972133;28;20584;-72
2022/08/10 08:54:46;;;;;;;7.03;2.70;;;12.40;99.90;;;;;;4989679;28;20863;-72
2022/08/10 08:57:50;;;;;;;7.10;2.97;;;12.40;99.90;;;;;;5005212;28;20271;-71
2022/08/10 09:00:41;;;;;;;11.90;3.57;;;12.40;99.90;;;;;;4995950;28;20177;-72
2022/08/10 09:03:35;;;;;;;12.37;5.53;;;12.40;99.90;;;;;;4976446;28;20276;-71
2022/08/10 09:06:28;;;;;;;21.43;10.83;;;12.40;99.90;;;;;;4985470;28;20625;-72
2022/08/10 09:09:06;;;;;;;7.83;4.53;;;12.50;99.90;;;;;;4993204;28;20611;-72
2022/08/10 09:11:50;;;;;;;7.33;2.80;;;12.50;99.90;;;;;;4993278;28;20568;-72
2022/08/10 09:14:39;;;;;;;7.17;2.70;;;12.50;99.90;;;;;;4978765;28;20234;-72
2022/08/10 09:17:40;;;;;;;5.23;3.13;;;12.50;99.90;;;;;;4997164;28;20185;-72
2022/08/10 09:20:49;;;;;;;4.23;2.30;;;12.50;99.90;;;;;;4979728;28;20214;-72
2022/08/10 09:23:44;;;;;;;4.00;2.33;;;12.50;99.90;;;;;;4984141;28;20199;-72
2022/08/10 09:26:33;;;;;;;4.23;2.27;;;12.50;99.90;;;;;;4988643;28;20205;-71
2022/08/10 09:29:03;;;;;;;3.67;2.00;;;12.60;99.90;;;;;;4978223;28;20244;-73
2022/08/10 09:31:42;;;;;;;7.67;2.50;;;12.50;99.90;;;;;;4981634;28;20657;-72
2022/08/10 09:35:05;;;;;;;7.33;2.20;;;12.50;99.90;;;;;;4997932;28;20219;-72
2022/08/10 09:37:39;;;;;;;9.67;2.77;;;12.40;99.90;;;;;;4986018;28;20191;-73
2022/08/10 09:40:27;;;;;;;6.00;2.77;;;12.40;99.90;;;;;;4978694;28;20264;-69
2022/08/10 09:43:41;;;;;;;16.83;8.37;;;12.30;99.90;;;;;;4986125;28;20268;-72
2022/08/10 09:46:09;;;;;;;27.43;16.50;;;12.30;99.90;;;;;;4973324;28;20214;-70
2022/08/10 09:49:19;;;;;;;18.67;8.77;;;12.30;99.90;;;;;;4968255;28;20323;-70
2022/08/10 09:52:09;;;;;;;21.67;12.33;;;12.30;99.90;;;;;;4995571;28;20190;-73
2022/08/10 09:55:05;;;;;;;9.83;5.27;;;12.20;99.90;;;;;;4996040;28;20181;-70
2022/08/10 09:58:19;;;;;;;14.43;8.47;;;12.10;99.90;;;;;;4994689;28;20179;-71
2022/08/10 10:01:01;;;;;;;34.63;22.10;;;12.00;99.90;;;;;;4968668;28;20296;-72
2022/08/10 10:03:42;;;;;;;6.87;4.60;;;12.00;99.90;;;;;;4960622;28;20649;-70
2022/08/10 10:06:23;;;;;;;6.60;4.00;;;11.80;99.90;;;;;;4959365;28;20298;-73
2022/08/10 10:09:07;;;;;;;7.40;4.47;;;11.70;99.90;;;;;;4976446;28;20306;-72
2022/08/10 10:12:10;;;;;;;9.23;5.07;;;11.60;99.90;;;;;;4985968;28;20666;-71
2022/08/10 10:15:20;;;;;;;7.67;4.87;;;11.60;99.90;;;;;;4994819;28;20179;-72
2022/08/10 10:18:00;;;;;;;10.67;5.10;;;11.50;99.90;;;;;;4995446;28;20238;-72
2022/08/10 10:20:40;;;;;;;9.87;5.67;;;11.40;99.90;;;;;;4993233;28;20190;-69
2022/08/10 10:23:49;;;;;;;11.53;4.97;;;11.40;99.90;;;;;;4993044;28;20261;-70
2022/08/10 10:26:43;;;;;;;10.30;5.40;;;11.40;99.90;;;;;;4990070;28;20187;-73
2022/08/10 10:29:40;;;;;;;10.37;5.30;;;11.40;99.90;;;;;;4977500;28;20191;-71
2022/08/10 10:32:41;;;;;;;8.67;4.90;;;11.50;99.90;;;;;;4991649;28;20267;-72
2022/08/10 10:35:24;;;;;;;10.17;5.30;;;11.50;99.90;;;;;;4975957;28;20188;-72
2022/08/10 10:37:57;;;;;;;9.13;5.53;;;11.60;99.90;;;;;;4984952;28;20180;-71
2022/08/10 10:40:30;;;;;;;7.87;5.57;;;11.60;99.90;;;;;;4995428;28;20266;-72
2022/08/10 10:43:15;;;;;;;13.33;6.70;;;11.70;99.90;;;;;;4995623;28;20265;-71
2022/08/10 10:46:03;;;;;;;12.87;7.27;;;11.70;99.90;;;;;;4995859;28;20167;-71
2022/08/10 10:48:57;;;;;;;12.97;6.67;;;11.70;99.90;;;;;;4975690;28;20612;-71
2022/08/10 10:51:59;;;;;;;11.53;6.57;;;11.70;99.90;;;;;;4981090;28;20192;-72
2022/08/10 10:54:52;;;;;;;9.87;6.40;;;11.80;99.90;;;;;;4995190;28;20206;-70
2022/08/10 10:57:26;;;;;;;13.47;7.47;;;11.60;99.90;;;;;;4994151;28;20638;-69
2022/08/10 11:00:02;;;;;;;12.17;6.50;;;11.60;99.90;;;;;;4995490;28;20184;-72
2022/08/10 11:02:31;;;;;;;14.40;6.20;;;11.50;99.90;;;;;;4994463;28;20192;-72
2022/08/10 11:05:28;;;;;;;10.57;6.60;;;11.40;99.90;;;;;;4984960;28;20191;-72
2022/08/10 11:08:09;;;;;;;13.67;5.30;;;11.30;99.90;;;;;;4992305;28;20685;-72
2022/08/10 11:11:13;;;;;;;10.97;5.93;;;11.20;99.90;;;;;;4975428;28;20176;-71
2022/08/10 11:14:04;;;;;;;10.30;5.60;;;11.10;99.90;;;;;;4973295;28;20271;-70
2022/08/10 11:16:56;;;;;;;10.50;5.83;;;10.90;99.90;;;;;;4960658;28;20657;-71
2022/08/10 11:19:47;;;;;;;12.27;6.47;;;10.90;99.90;;;;;;4975311;28;20631;-71
2022/08/10 11:22:36;;;;;;;9.80;6.63;;;10.90;99.90;;;;;;4990313;28;20183;-71
2022/08/10 11:25:28;;;;;;;11.40;6.10;;;10.90;99.90;;;;;;4980111;28;20220;-72
2022/08/10 11:28:03;;;;;;;10.17;6.10;;;10.90;99.90;;;;;;4975336;28;20241;-71
2022/08/10 11:31:04;;;;;;;11.10;6.03;;;10.90;99.90;;;;;;4975021;28;20172;-69
2022/08/10 11:33:51;;;;;;;13.97;7.13;;;10.80;99.90;;;;;;4972349;28;20342;-72
2022/08/10 11:36:31;;;;;;;13.20;6.30;;;10.80;99.90;;;;;;4974855;28;20176;-70
2022/08/10 11:39:30;;;;;;;12.93;7.23;;;10.70;99.90;;;;;;4974867;28;20182;-70
2022/08/10 11:42:10;;;;;;;14.00;6.60;;;10.70;99.90;;;;;;4971307;28;20197;-71
2022/08/10 11:44:43;;;;;;;14.57;6.40;;;10.70;99.90;;;;;;4976319;28;20176;-70
2022/08/10 11:47:21;;;;;;;10.13;6.47;;;10.80;99.90;;;;;;4987461;28;20230;-70
2022/08/10 11:50:00;;;;;;;9.03;5.80;;;10.70;99.90;;;;;;4981366;28;20182;-69
2022/08/10 11:52:55;;;;;;;8.90;6.17;;;10.70;99.90;;;;;;4993855;28;20177;-69
2022/08/10 11:55:25;;;;;;;9.77;5.87;;;10.70;99.90;;;;;;4994557;28;20523;-70
2022/08/10 11:57:57;;;;;;;11.23;5.43;;;10.70;99.90;;;;;;4978779;28;20195;-72
2022/08/10 12:00:29;;;;;;;9.50;5.93;;;10.70;99.90;;;;;;4974677;28;20266;-70
2022/08/10 12:03:02;;;;;;;9.50;6.13;;;10.70;99.90;;;;;;4974724;28;20171;-71
2022/08/10 12:05:33;;;;;;;8.90;5.67;;;10.60;99.90;;;;;;4974630;28;20189;-71
2022/08/10 12:08:02;;;;;;;8.07;5.50;;;10.50;99.90;;;;;;4974534;28;20223;-71
2022/08/10 12:10:31;;;;;;;12.00;6.40;;;10.60;99.90;;;;;;4975754;28;20242;-70
2022/08/10 12:13:33;;;;;;;9.97;5.77;;;10.50;99.90;;;;;;4993131;28;20215;-72
2022/08/10 12:16:08;;;;;;;8.63;5.93;;;10.50;99.90;;;;;;4950975;28;20201;-70
2022/08/10 12:18:53;;;;;;;9.27;5.20;;;10.40;99.90;;;;;;4980305;28;20254;-70
2022/08/10 12:21:29;;;;;;;8.70;5.70;;;10.40;99.90;;;;;;4974504;28;20230;-71
2022/08/10 12:24:20;;;;;;;12.33;5.87;;;10.30;99.90;;;;;;4974539;28;20182;-69
2022/08/10 12:26:53;;;;;;;12.13;6.10;;;10.30;99.90;;;;;;4974196;28;20710;-70
2022/08/10 12:29:54;;;;;;;11.43;6.30;;;10.30;99.90;;;;;;4974524;28;20183;-70
2022/08/10 12:32:39;;;;;;;11.23;6.37;;;10.30;99.90;;;;;;4968532;28;20223;-69
2022/08/10 12:35:45;;;;;;;9.83;6.17;;;10.20;99.90;;;;;;4977553;28;20550;-70
2022/08/10 12:38:37;;;;;;;11.23;5.47;;;10.10;99.90;;;;;;4993071;28;20201;-69
2022/08/10 12:41:12;;;;;;;9.47;5.80;;;10.10;99.90;;;;;;4993585;28;20266;-71
2022/08/10 12:44:07;;;;;;;12.03;6.23;;;9.90;99.90;;;;;;4993660;28;20177;-68
2022/08/10 12:46:50;;;;;;;13.50;6.87;;;9.90;99.90;;;;;;4985898;28;20201;-73
2022/08/10 12:49:48;;;;;;;10.30;6.00;;;9.90;99.90;;;;;;4996921;28;20257;-71
2022/08/10 12:52:31;;;;;;;10.10;6.57;;;9.90;99.90;;;;;;4997519;28;20184;-72
2022/08/10 12:55:02;;;;;;;16.33;7.20;;;9.80;99.90;;;;;;4979508;28;20187;-71
2022/08/10 12:57:33;;;;;;;12.77;6.37;;;9.70;99.90;;;;;;4979526;28;20657;-71
2022/08/10 13:00:02;;;;;;;11.73;6.63;;;9.60;99.90;;;;;;4997311;28;20183;-71
2022/08/10 13:02:35;;;;;;;11.87;6.33;;;9.60;99.90;;;;;;4997029;28;20219;-70
2022/08/10 13:05:07;;;;;;;14.57;6.57;;;9.50;99.90;;;;;;4995275;28;20206;-71
2022/08/10 13:07:35;;;;;;;11.87;6.63;;;9.50;99.90;;;;;;4997841;28;20211;-72
2022/08/10 13:10:06;;;;;;;7.87;6.10;;;9.40;99.90;;;;;;4997243;28;20176;-72
2022/08/10 13:12:37;;;;;;;10.87;6.70;;;9.40;99.90;;;;;;4979950;28;20222;-73
2022/08/10 13:15:14;;;;;;;12.73;6.97;;;9.30;99.90;;;;;;4981146;28;20175;-73
2022/08/10 13:17:47;;;;;;;10.77;7.07;;;9.30;99.90;;;;;;4977709;28;20282;-73
2022/08/10 13:20:26;;;;;;;12.57;7.50;;;9.30;99.90;;;;;;4977429;28;20176;-73
2022/08/10 13:22:58;;;;;;;12.57;7.63;;;9.30;99.90;;;;;;4977908;28;20262;-70
2022/08/10 13:25:39;;;;;;;11.97;7.10;;;9.30;99.90;;;;;;4977474;28;20173;-72
2022/08/10 13:28:11;;;;;;;16.70;7.53;;;9.20;99.90;;;;;;4977256;28;20270;-70
2022/08/10 13:30:40;;;;;;;10.70;6.43;;;9.20;99.90;;;;;;4977244;28;20183;-70
2022/08/10 13:33:11;;;;;;;12.50;6.90;;;9.20;99.90;;;;;;4977275;28;20654;-69
2022/08/10 13:35:43;;;;;;;13.60;6.87;;;9.10;99.90;;;;;;4988950;28;20707;-70